Time;durP1;ratioP1;P1;durP2;ratioP2;P2;SDS_P1;SDS_P2;PMS_P1;PMS_P2;Temp;Humidity;BMP_temperature;BMP_pressure;BME280_temperature;BME280_humidity;BME280_pressure;Samples;Min_cycle;Max_cycle;Signal;HPM_P1;HPM_P2
2022/12/14 00:00:58;;;;;;;65.65;37.88;;;-3.70;99.90;;;;;;4985210;28;20121;-60
2022/12/14 00:03:24;;;;;;;63.63;35.95;;;-2.30;99.90;;;;;;4983168;28;20423;-58
2022/12/14 00:05:50;;;;;;;66.78;36.35;;;-3.90;99.90;;;;;;4972524;28;20181;-60
2022/12/14 00:08:17;;;;;;;67.43;37.22;;;-3.70;99.90;;;;;;4982011;28;20047;-56
2022/12/14 00:10:43;;;;;;;58.92;34.42;;;-3.70;99.90;;;;;;4984896;28;20351;-60
2022/12/14 00:13:11;;;;;;;61.10;35.20;;;-3.70;99.90;;;;;;4983175;28;20046;-59
2022/12/14 00:15:37;;;;;;;59.83;34.95;;;-3.10;99.90;;;;;;4983150;28;20090;-60
2022/12/14 00:18:03;;;;;;;56.30;33.33;;;-3.10;99.90;;;;;;4983860;28;20070;-58
2022/12/14 00:20:29;;;;;;;63.03;35.80;;;-3.70;99.90;;;;;;4983349;28;20076;-61
2022/12/14 00:22:56;;;;;;;58.60;34.83;;;-2.80;99.90;;;;;;4983470;28;20040;-59
2022/12/14 00:25:23;;;;;;;60.22;35.72;;;-3.70;99.90;;;;;;4984189;28;20830;-60
2022/12/14 00:27:50;;;;;;;64.05;36.47;;;-3.70;99.90;;;;;;4984982;28;20058;-59
2022/12/14 00:30:18;;;;;;;60.15;35.58;;;-3.80;99.90;;;;;;4984361;28;20268;-61
2022/12/14 00:32:44;;;;;;;62.20;35.60;;;-3.10;99.90;;;;;;4984978;28;20552;-60
2022/12/14 00:35:14;;;;;;;54.88;32.95;;;-3.10;99.90;;;;;;4982549;28;20073;-60
2022/12/14 00:37:39;;;;;;;59.78;34.13;;;-3.80;99.90;;;;;;4984144;28;20049;-58
2022/12/14 00:40:06;;;;;;;62.10;35.08;;;-3.80;99.90;;;;;;4984012;28;20058;-60
2022/12/14 00:42:32;;;;;;;59.13;33.90;;;-3.60;99.90;;;;;;4983265;28;20441;-60
2022/12/14 00:44:59;;;;;;;57.05;34.00;;;-3.70;99.90;;;;;;4984709;28;20439;-61
2022/12/14 00:47:24;;;;;;;60.78;34.30;;;-3.80;99.90;;;;;;4983816;28;20050;-59
2022/12/14 00:49:50;;;;;;;58.22;34.42;;;-4.00;99.90;;;;;;4983177;28;20564;-60
2022/12/14 00:52:16;;;;;;;56.55;33.05;;;-3.80;99.90;;;;;;4984079;28;20081;-58
2022/12/14 00:54:42;;;;;;;57.75;33.47;;;-4.00;99.90;;;;;;4984135;28;20042;-60
2022/12/14 00:57:08;;;;;;;58.63;33.65;;;-4.20;99.90;;;;;;4984276;28;20088;-61
2022/12/14 00:59:34;;;;;;;54.90;33.05;;;-4.20;99.90;;;;;;4984094;28;20081;-56
2022/12/14 01:01:59;;;;;;;58.25;33.40;;;-4.40;99.90;;;;;;4983545;28;20050;-61
2022/12/14 01:04:26;;;;;;;57.30;33.83;;;-4.40;99.90;;;;;;4975204;28;20550;-60
2022/12/14 01:06:52;;;;;;;61.05;34.65;;;-4.40;99.90;;;;;;4971587;28;20042;-60
2022/12/14 01:09:19;;;;;;;56.17;32.58;;;-4.20;99.90;;;;;;4963953;28;20089;-59
2022/12/14 01:11:46;;;;;;;55.53;32.38;;;-4.40;99.90;;;;;;4964459;28;20051;-60
2022/12/14 01:14:13;;;;;;;52.13;31.90;;;-2.20;99.90;;;;;;4964430;28;20047;-58
2022/12/14 01:16:39;;;;;;;55.55;32.78;;;-4.30;99.90;;;;;;4962898;28;20059;-61
2022/12/14 01:19:05;;;;;;;54.72;32.13;;;-4.40;99.90;;;;;;4963751;28;20055;-59
2022/12/14 01:21:31;;;;;;;56.20;32.42;;;-4.30;99.90;;;;;;4963620;28;20054;-61
2022/12/14 01:24:00;;;;;;;53.92;32.63;;;-4.20;99.90;;;;;;4964373;28;20433;-60
2022/12/14 01:26:28;;;;;;;52.83;32.08;;;-4.10;99.90;;;;;;4964532;28;20089;-60
2022/12/14 01:28:56;;;;;;;60.47;31.77;;;-4.10;99.90;;;;;;4964114;28;20050;-59
2022/12/14 01:31:27;;;;;;;55.20;33.47;;;-4.30;99.90;;;;;;4963717;28;20054;-59
2022/12/14 01:33:53;;;;;;;53.42;30.80;;;-4.30;99.90;;;;;;4964043;28;20502;-60
2022/12/14 01:36:21;;;;;;;52.08;31.20;;;-4.20;99.90;;;;;;4961536;28;20051;-59
2022/12/14 01:38:51;;;;;;;54.05;31.85;;;-4.20;99.90;;;;;;4964353;28;20097;-59
2022/12/14 01:41:31;;;;;;;57.08;32.70;;;-4.40;99.90;;;;;;4964584;28;20716;-57
2022/12/14 01:44:00;;;;;;;55.65;31.83;;;-4.40;99.90;;;;;;4963994;28;20050;-59
2022/12/14 01:47:10;;;;;;;53.55;30.63;;;-4.40;99.90;;;;;;4963682;28;20039;-60
2022/12/14 01:49:45;;;;;;;52.83;31.10;;;-4.50;99.90;;;;;;4959340;28;20700;-60
2022/12/14 01:52:15;;;;;;;50.72;31.02;;;-4.60;99.90;;;;;;4961951;28;20050;-58
2022/12/14 01:54:50;;;;;;;54.35;31.65;;;-4.60;99.90;;;;;;4963437;28;20490;-59
2022/12/14 01:57:18;;;;;;;;;;;-4.70;99.90;;;;;;4965206;28;20386;-59
2022/12/14 01:59:45;;;;;;;55.50;31.10;;;-4.80;99.90;;;;;;4963380;28;19922;-60
2022/12/14 02:02:14;;;;;;;52.88;30.88;;;-4.90;99.90;;;;;;4962104;28;20053;-59
2022/12/14 02:04:45;;;;;;;58.83;31.85;;;-5.10;99.90;;;;;;4974315;28;20091;-60
2022/12/14 02:07:13;;;;;;;54.72;32.78;;;-4.80;99.90;;;;;;4968016;28;20054;-57
2022/12/14 02:09:41;;;;;;;52.83;31.40;;;-4.90;99.90;;;;;;4961821;28;20592;-59
2022/12/14 02:12:23;;;;;;;57.75;31.67;;;-4.80;99.90;;;;;;4962830;28;20741;-60
2022/12/14 02:14:51;;;;;;;53.25;31.13;;;-4.70;99.90;;;;;;4962111;28;20059;-59
2022/12/14 02:17:18;;;;;;;48.75;29.45;;;-4.80;99.90;;;;;;4962623;28;20055;-59
2022/12/14 02:19:45;;;;;;;55.92;31.65;;;-4.70;99.90;;;;;;4961919;28;20041;-58
2022/12/14 02:22:45;;;;;;;51.28;30.63;;;-4.80;99.90;;;;;;4962489;28;20443;-56
2022/12/14 02:25:19;;;;;;;51.53;30.83;;;-4.80;99.90;;;;;;4961862;28;20282;-60
2022/12/14 02:27:51;;;;;;;54.05;30.85;;;-4.90;99.90;;;;;;4961160;28;20042;-60
2022/12/14 02:30:30;;;;;;;50.33;30.73;;;-5.40;99.90;;;;;;4961049;28;20146;-60
2022/12/14 02:33:17;;;;;;;48.60;29.48;;;-4.90;99.90;;;;;;4961710;28;20072;-60
2022/12/14 02:35:52;;;;;;;50.50;29.50;;;-4.80;99.90;;;;;;4964124;28;20111;-60
2022/12/14 02:38:27;;;;;;;55.25;29.23;;;-4.90;99.90;;;;;;4970234;28;20058;-60
2022/12/14 02:41:07;;;;;;;50.72;30.10;;;-5.00;99.90;;;;;;4969982;28;20049;-61
2022/12/14 02:43:43;;;;;;;46.78;28.13;;;-5.00;99.90;;;;;;4969869;28;20043;-60
2022/12/14 02:46:11;;;;;;;50.90;29.65;;;-5.10;99.90;;;;;;4968196;28;20043;-60
2022/12/14 02:48:52;;;;;;;49.58;28.15;;;-5.10;99.90;;;;;;4967658;28;20276;-57
2022/12/14 02:51:29;;;;;;;53.67;29.77;;;-3.20;99.90;;;;;;4968630;28;20077;-60
2022/12/14 02:54:02;;;;;;;52.35;29.75;;;-4.80;99.90;;;;;;4969103;28;20732;-60
2022/12/14 02:56:37;;;;;;;48.10;28.80;;;-5.10;99.90;;;;;;4969336;28;20043;-59
2022/12/14 02:59:07;;;;;;;50.08;27.50;;;-5.10;99.90;;;;;;4968849;28;20051;-59
2022/12/14 03:01:34;;;;;;;50.58;29.65;;;-5.10;99.90;;;;;;4970033;28;20174;-60
2022/12/14 03:04:02;;;;;;;48.08;28.10;;;-5.20;99.90;;;;;;4970918;28;20084;-60
2022/12/14 03:06:28;;;;;;;47.85;27.83;;;-5.50;99.90;;;;;;4977663;28;20050;-58
2022/12/14 03:09:07;;;;;;;50.10;29.60;;;-5.30;99.90;;;;;;4969655;28;20042;-60
2022/12/14 03:11:44;;;;;;;47.60;28.67;;;-5.30;99.90;;;;;;4969125;28;20047;-59
2022/12/14 03:14:38;;;;;;;52.03;29.50;;;-5.40;99.90;;;;;;4969124;28;20398;-59
2022/12/14 03:17:11;;;;;;;51.28;29.30;;;-4.30;99.90;;;;;;4967480;28;20043;-58
2022/12/14 03:19:41;;;;;;;51.33;30.35;;;-5.50;99.90;;;;;;4966755;28;20102;-60
2022/12/14 03:22:15;;;;;;;52.92;29.60;;;-5.60;99.90;;;;;;4969145;28;20065;-60
2022/12/14 03:24:51;;;;;;;50.15;29.48;;;-5.80;99.90;;;;;;4968059;28;20129;-61
2022/12/14 03:27:26;;;;;;;50.35;29.73;;;-5.80;99.90;;;;;;4969358;28;20130;-60
2022/12/14 03:30:04;;;;;;;50.95;29.80;;;-5.90;99.90;;;;;;4967706;28;20781;-60
2022/12/14 03:32:32;;;;;;;52.17;28.70;;;-4.80;99.90;;;;;;4967852;28;20045;-59
2022/12/14 03:35:06;;;;;;;50.08;28.20;;;-5.80;99.90;;;;;;4968231;28;20118;-60
2022/12/14 03:37:52;;;;;;;51.03;28.48;;;-5.50;99.90;;;;;;4968870;28;20101;-60
2022/12/14 03:40:22;;;;;;;53.00;27.95;;;-4.80;99.90;;;;;;4968968;28;20043;-60
2022/12/14 03:42:57;;;;;;;49.08;27.48;;;-5.60;99.90;;;;;;4968681;28;20125;-59
2022/12/14 03:45:43;;;;;;;47.95;28.08;;;-5.50;99.90;;;;;;4969289;28;20465;-58
2022/12/14 03:48:11;;;;;;;;;;;-5.60;99.90;;;;;;4965694;28;20042;-61
2022/12/14 03:50:40;;;;;;;47.45;27.13;;;-5.50;99.90;;;;;;4963410;28;19922;-56
2022/12/14 03:53:15;;;;;;;52.38;28.13;;;-5.50;99.90;;;;;;4966133;28;20053;-60
2022/12/14 03:56:10;;;;;;;49.10;28.38;;;-5.50;99.90;;;;;;4965795;28;20094;-59
2022/12/14 03:58:44;;;;;;;47.20;27.17;;;-5.60;99.90;;;;;;4965856;28;20042;-61
2022/12/14 04:01:31;;;;;;;50.25;28.65;;;-5.50;99.90;;;;;;4965164;28;20101;-60
2022/12/14 04:04:10;;;;;;;49.28;28.17;;;-5.60;99.90;;;;;;4967338;28;20050;-58
2022/12/14 04:06:51;;;;;;;51.20;28.30;;;-5.70;99.90;;;;;;4973379;28;20043;-59
2022/12/14 04:09:37;;;;;;;50.00;26.42;;;-5.60;99.90;;;;;;4965479;28;20320;-59
2022/12/14 04:20:57;;;;;;;51.33;26.42;;;-5.70;99.90;;;;;;4964764;28;20060;-60
2022/12/14 04:26:14;;;;;;;48.08;27.15;;;-6.00;99.90;;;;;;4965806;28;20281;-60
2022/12/14 04:31:44;;;;;;;50.22;26.73;;;-6.20;99.90;;;;;;4965265;28;20513;-60
2022/12/14 04:34:12;;;;;;;54.17;28.73;;;-6.30;99.90;;;;;;4964391;28;20058;-60
2022/12/14 04:36:43;;;;;;;48.55;27.23;;;-6.20;99.90;;;;;;4964800;28;20105;-60
2022/12/14 04:39:21;;;;;;;51.58;27.67;;;-6.20;99.90;;;;;;4965624;28;20047;-60
2022/12/14 04:41:49;;;;;;;51.00;27.90;;;-6.30;99.90;;;;;;4965193;28;20047;-60
2022/12/14 04:44:30;;;;;;;54.75;26.25;;;-6.40;99.90;;;;;;4964139;28;20041;-59
2022/12/14 04:46:58;;;;;;;51.88;28.08;;;-6.30;99.90;;;;;;4965012;28;20043;-60
2022/12/14 04:49:39;;;;;;;54.35;28.95;;;-6.40;99.90;;;;;;4963078;28;20062;-59
2022/12/14 04:52:14;;;;;;;54.35;30.00;;;-6.40;99.90;;;;;;4964603;28;20049;-59
2022/12/14 04:54:58;;;;;;;59.03;30.90;;;-6.40;99.90;;;;;;4963413;28;20410;-59
2022/12/14 04:57:33;;;;;;;57.00;30.80;;;-6.40;99.90;;;;;;4964981;28;20046;-60
2022/12/14 05:00:00;;;;;;;60.88;33.50;;;-6.30;99.90;;;;;;4964830;28;20135;-60
2022/12/14 05:03:03;;;;;;;53.33;29.73;;;-4.90;99.90;;;;;;4964238;28;20540;-59
2022/12/14 05:05:31;;;;;;;55.80;29.95;;;-6.30;99.90;;;;;;4974807;28;20057;-59
2022/12/14 05:08:16;;;;;;;53.88;28.98;;;-6.30;99.90;;;;;;4964462;28;20045;-59
2022/12/14 05:10:55;;;;;;;54.50;29.05;;;-6.30;99.90;;;;;;4964138;28;20057;-60
2022/12/14 05:13:26;;;;;;;56.72;29.83;;;-5.70;99.90;;;;;;4963294;28;20414;-60
2022/12/14 05:15:55;;;;;;;52.47;28.33;;;-6.20;99.90;;;;;;4964306;28;20776;-60
2022/12/14 05:18:22;;;;;;;52.92;28.08;;;-6.20;99.90;;;;;;4965095;28;20065;-60
2022/12/14 05:20:48;;;;;;;49.22;27.48;;;-6.30;99.90;;;;;;4963287;28;20065;-56
2022/12/14 05:23:14;;;;;;;48.28;26.98;;;-6.30;99.90;;;;;;4964982;28;20042;-60
2022/12/14 05:25:40;;;;;;;48.33;27.27;;;-6.20;99.90;;;;;;4964498;28;20042;-60
2022/12/14 05:28:06;;;;;;;50.03;26.48;;;-6.20;99.90;;;;;;4964761;28;20038;-59
2022/12/14 05:30:32;;;;;;;52.53;27.67;;;-5.90;99.90;;;;;;4964133;28;20410;-58
2022/12/14 05:32:58;;;;;;;51.22;27.65;;;-6.20;99.90;;;;;;4964846;28;20045;-60
2022/12/14 05:35:24;;;;;;;51.17;27.83;;;-6.20;99.90;;;;;;4963359;28;20043;-59
2022/12/14 05:37:49;;;;;;;49.15;28.13;;;-6.20;99.90;;;;;;4963141;28;20133;-60
2022/12/14 05:40:16;;;;;;;52.63;27.60;;;-6.20;99.90;;;;;;4964239;28;20050;-59
2022/12/14 05:42:41;;;;;;;47.88;26.40;;;-6.10;99.90;;;;;;4963697;28;20395;-60
2022/12/14 05:45:10;;;;;;;54.40;28.00;;;-6.20;99.90;;;;;;4964279;28;20196;-60
2022/12/14 05:47:35;;;;;;;48.90;26.80;;;-6.20;99.90;;;;;;4962521;28;20047;-59
2022/12/14 05:50:01;;;;;;;49.78;27.27;;;-6.10;99.90;;;;;;4963537;28;20560;-59
2022/12/14 05:52:27;;;;;;;52.90;28.50;;;-6.20;99.90;;;;;;4962180;28;20434;-60
2022/12/14 05:54:52;;;;;;;48.17;28.35;;;-6.20;99.90;;;;;;4962810;28;20101;-60
2022/12/14 05:57:18;;;;;;;50.42;28.88;;;-6.20;99.90;;;;;;4962954;28;20311;-60
2022/12/14 05:59:44;;;;;;;45.78;26.50;;;-6.30;99.90;;;;;;4963862;28;20042;-59
2022/12/14 06:02:10;;;;;;;47.90;25.92;;;-4.50;99.90;;;;;;4963669;28;20046;-58
2022/12/14 06:04:36;;;;;;;55.10;29.10;;;-6.20;99.90;;;;;;4966944;28;20047;-60
2022/12/14 06:07:01;;;;;;;48.92;26.70;;;-5.60;99.90;;;;;;4970119;28;20043;-60
2022/12/14 06:09:27;;;;;;;45.55;25.63;;;-6.30;99.90;;;;;;4963608;28;20043;-60
2022/12/14 06:11:53;;;;;;;49.38;26.92;;;-6.30;99.90;;;;;;4963265;28;20462;-59
2022/12/14 06:14:19;;;;;;;52.45;27.65;;;-6.40;99.90;;;;;;4962473;28;20093;-59
2022/12/14 06:16:46;;;;;;;50.85;25.83;;;-6.40;99.90;;;;;;4963564;28;20138;-60
2022/12/14 06:19:13;;;;;;;48.90;24.77;;;-6.40;99.90;;;;;;4962403;28;20057;-58
2022/12/14 06:21:41;;;;;;;47.13;25.08;;;-6.40;99.90;;;;;;4963350;28;20055;-60
2022/12/14 06:24:09;;;;;;;42.53;24.08;;;-6.50;99.90;;;;;;4962149;28;20049;-59
2022/12/14 06:26:40;;;;;;;46.80;25.08;;;-6.50;99.90;;;;;;4964333;28;20047;-59
2022/12/14 06:29:09;;;;;;;49.40;25.60;;;-5.70;99.90;;;;;;4962936;28;20500;-59
2022/12/14 06:31:37;;;;;;;49.05;25.67;;;-6.50;99.90;;;;;;4962303;28;20763;-58
2022/12/14 06:34:02;;;;;;;41.47;23.40;;;-6.40;99.90;;;;;;4963383;28;20050;-59
2022/12/14 06:36:31;;;;;;;46.88;24.38;;;-6.60;99.90;;;;;;4962654;28;20039;-57
2022/12/14 06:39:00;;;;;;;43.35;24.05;;;-6.50;99.90;;;;;;4963512;28;20043;-60
2022/12/14 06:41:25;;;;;;;44.80;24.35;;;-6.50;99.90;;;;;;4961626;28;20429;-59
2022/12/14 06:43:52;;;;;;;44.50;23.63;;;-6.50;99.90;;;;;;4963426;28;20050;-60
2022/12/14 06:46:21;;;;;;;44.35;23.65;;;-6.50;99.90;;;;;;4962695;28;20047;-60
2022/12/14 06:48:51;;;;;;;44.08;23.92;;;-6.40;99.90;;;;;;4960355;28;20055;-59
2022/12/14 06:51:17;;;;;;;49.70;23.77;;;-6.40;99.90;;;;;;4963133;28;20130;-60
2022/12/14 06:53:43;;;;;;;45.05;23.33;;;-6.30;99.90;;;;;;4961629;28;20129;-58
2022/12/14 06:56:11;;;;;;;43.55;22.80;;;-6.30;99.90;;;;;;4962540;28;20043;-60
2022/12/14 06:58:38;;;;;;;41.50;22.33;;;-8.20;99.90;;;;;;4961640;28;20260;-59
2022/12/14 07:01:09;;;;;;;43.70;22.67;;;-6.30;99.90;;;;;;4963502;28;20051;-60
2022/12/14 07:03:35;;;;;;;44.70;23.75;;;-6.50;99.90;;;;;;4962810;28;20366;-59
2022/12/14 07:06:02;;;;;;;45.33;22.80;;;-6.40;99.90;;;;;;4972310;28;20375;-60
2022/12/14 07:08:30;;;;;;;40.35;21.98;;;-6.30;99.90;;;;;;4962835;28;20047;-59
2022/12/14 07:10:55;;;;;;;43.13;22.90;;;-4.00;99.90;;;;;;4963121;28;20098;-61
2022/12/14 07:13:21;;;;;;;41.38;22.52;;;-6.30;99.90;;;;;;4962751;28;20042;-60
2022/12/14 07:15:52;;;;;;;40.90;21.30;;;-6.40;99.90;;;;;;4962482;28;20081;-60
2022/12/14 07:18:19;;;;;;;39.60;21.00;;;-6.90;99.90;;;;;;4962257;28;20058;-59
2022/12/14 07:21:01;;;;;;;42.28;23.08;;;-6.50;99.90;;;;;;4962316;28;20093;-60
2022/12/14 07:23:28;;;;;;;42.63;22.70;;;-6.00;99.90;;;;;;4965924;28;20042;-59
2022/12/14 07:26:04;;;;;;;42.72;22.30;;;-6.30;99.90;;;;;;4966622;28;20058;-60
2022/12/14 07:28:31;;;;;;;41.03;21.77;;;-6.40;99.90;;;;;;4965522;28;20113;-61
2022/12/14 07:30:58;;;;;;;41.60;21.15;;;-6.40;99.90;;;;;;4966636;28;20035;-61
2022/12/14 07:33:24;;;;;;;44.05;22.50;;;-6.50;99.90;;;;;;4964931;28;20058;-58
2022/12/14 07:35:51;;;;;;;43.30;23.40;;;-6.50;99.90;;;;;;4966721;28;20121;-55
2022/12/14 07:38:17;;;;;;;45.90;23.67;;;-6.50;99.90;;;;;;4964544;28;20132;-58
2022/12/14 07:40:44;;;;;;;44.28;23.30;;;-6.40;99.90;;;;;;4975251;28;20070;-54
2022/12/14 07:43:09;;;;;;;43.50;23.15;;;-6.50;99.90;;;;;;4974730;28;20046;-55
2022/12/14 07:45:35;;;;;;;42.95;22.55;;;-5.80;99.90;;;;;;4983285;28;20120;-57
2022/12/14 07:48:01;;;;;;;42.70;21.90;;;-6.40;99.90;;;;;;4984664;28;20046;-57
2022/12/14 07:50:27;;;;;;;41.72;22.65;;;-6.40;99.90;;;;;;4984793;28;20049;-57
2022/12/14 07:52:52;;;;;;;44.15;23.35;;;-6.40;99.90;;;;;;4985466;28;20097;-57
2022/12/14 07:55:18;;;;;;;42.28;23.40;;;-6.40;99.90;;;;;;4984418;28;20045;-55
2022/12/14 07:57:44;;;;;;;40.40;22.08;;;-6.50;99.90;;;;;;4984518;28;20517;-57
2022/12/14 08:00:10;;;;;;;43.38;22.90;;;-6.50;99.90;;;;;;4985216;28;20046;-54
2022/12/14 08:02:36;;;;;;;44.25;22.27;;;-5.90;99.90;;;;;;4984921;28;20588;-54
2022/12/14 08:05:01;;;;;;;42.20;22.02;;;-6.60;99.90;;;;;;4975973;28;20065;-56
2022/12/14 08:07:30;;;;;;;49.08;23.02;;;-6.60;99.90;;;;;;4969354;28;20177;-57
2022/12/14 08:09:56;;;;;;;42.47;22.42;;;-6.50;99.90;;;;;;4966332;28;20050;-57
2022/12/14 08:12:21;;;;;;;41.40;22.30;;;-6.50;99.90;;;;;;4965659;28;20046;-56
2022/12/14 08:14:48;;;;;;;42.08;23.20;;;-6.50;99.90;;;;;;4964721;28;20094;-56
2022/12/14 08:17:14;;;;;;;41.25;22.10;;;-6.60;99.90;;;;;;4965630;28;20054;-55
2022/12/14 08:19:39;;;;;;;43.50;23.08;;;-6.50;99.90;;;;;;4964086;28;20039;-55
2022/12/14 08:22:05;;;;;;;39.28;21.52;;;-6.60;99.90;;;;;;4964753;28;20065;-56
2022/12/14 08:24:31;;;;;;;40.78;22.13;;;-6.60;99.90;;;;;;4963001;28;20139;-55
2022/12/14 08:26:57;;;;;;;41.60;22.50;;;-6.50;99.90;;;;;;4963948;28;20038;-55
2022/12/14 08:29:23;;;;;;;42.67;22.70;;;-6.40;99.90;;;;;;4964730;28;20043;-56
2022/12/14 08:31:48;;;;;;;43.10;22.70;;;-6.60;99.90;;;;;;4964422;28;20042;-57
2022/12/14 08:34:20;;;;;;;45.30;23.65;;;-6.40;99.90;;;;;;4964173;28;20053;-56
2022/12/14 08:36:46;;;;;;;44.72;22.42;;;-6.30;99.90;;;;;;4965481;28;20521;-56
2022/12/14 08:39:12;;;;;;;43.10;22.00;;;-5.90;99.90;;;;;;4965340;28;20034;-56
2022/12/14 08:41:38;;;;;;;43.80;23.23;;;-6.30;99.90;;;;;;4964380;28;20046;-56
2022/12/14 08:44:04;;;;;;;43.05;22.70;;;-6.20;99.90;;;;;;4965124;28;20057;-55
2022/12/14 08:46:31;;;;;;;44.45;23.55;;;-6.30;99.90;;;;;;4965577;28;20083;-56
2022/12/14 08:48:57;;;;;;;46.33;23.52;;;-6.30;99.90;;;;;;4968511;28;20753;-55
2022/12/14 08:51:25;;;;;;;42.65;22.73;;;-6.20;99.90;;;;;;4984154;28;20128;-56
2022/12/14 08:53:52;;;;;;;45.22;24.02;;;-6.20;99.90;;;;;;4976278;28;20499;-54
2022/12/14 08:56:20;;;;;;;45.10;24.38;;;-4.90;99.90;;;;;;4964601;28;20382;-56
2022/12/14 08:58:46;;;;;;;42.30;23.80;;;-6.10;99.90;;;;;;4963790;28;20304;-56
2022/12/14 09:01:14;;;;;;;44.47;24.00;;;-6.10;99.90;;;;;;4965506;28;20042;-56
2022/12/14 09:03:43;;;;;;;45.70;24.33;;;-6.10;99.90;;;;;;4963753;28;21787;-55
2022/12/14 09:06:11;;;;;;;44.58;24.10;;;-5.90;99.90;;;;;;4974817;28;20453;-54
2022/12/14 09:08:37;;;;;;;41.30;21.75;;;-5.60;99.90;;;;;;4963165;28;20051;-55
2022/12/14 09:11:04;;;;;;;47.75;23.98;;;-5.50;99.90;;;;;;4964969;28;20130;-57
2022/12/14 09:13:30;;;;;;;43.75;23.38;;;-5.40;99.90;;;;;;4964326;28;20751;-56
2022/12/14 09:16:10;;;;;;;40.60;22.85;;;-5.10;99.90;;;;;;4964128;28;20062;-56
2022/12/14 09:18:36;;;;;;;39.47;22.95;;;-4.90;99.90;;;;;;4964267;28;20039;-56
2022/12/14 09:21:02;;;;;;;42.13;23.90;;;-4.90;99.90;;;;;;4964323;28;20066;-57
2022/12/14 09:23:30;;;;;;;41.95;23.20;;;-4.80;99.90;;;;;;4963851;28;20042;-56
2022/12/14 09:26:10;;;;;;;38.83;22.13;;;-4.60;99.90;;;;;;4964718;28;20097;-57
2022/12/14 09:28:38;;;;;;;40.17;23.40;;;-4.10;99.90;;;;;;4964370;28;20055;-56
2022/12/14 09:31:10;;;;;;;43.88;24.15;;;-4.40;99.90;;;;;;4963296;28;20051;-57
2022/12/14 09:33:36;;;;;;;40.05;23.60;;;-3.70;99.90;;;;;;4963663;28;20066;-57
2022/12/14 09:36:06;;;;;;;38.55;23.40;;;-2.60;99.90;;;;;;4964126;28;20411;-57
2022/12/14 09:38:34;;;;;;;40.08;23.38;;;-1.50;99.90;;;;;;4963511;28;20699;-58
2022/12/14 09:41:06;;;;;;;32.85;19.92;;;-0.40;99.90;;;;;;4964326;28;20046;-55
2022/12/14 09:43:31;;;;;;;35.50;21.10;;;0.80;99.90;;;;;;4964232;28;20050;-56
2022/12/14 09:46:08;;;;;;;34.13;21.38;;;0.90;99.90;;;;;;4962073;28;20478;-57
2022/12/14 09:48:35;;;;;;;33.70;21.23;;;1.30;99.90;;;;;;4963441;28;20075;-57
2022/12/14 09:51:00;;;;;;;32.20;20.02;;;1.80;99.90;;;;;;4964086;28;20051;-58
2022/12/14 09:53:27;;;;;;;30.17;19.13;;;2.20;99.90;;;;;;4961557;28;20109;-58
2022/12/14 09:55:55;;;;;;;32.83;19.52;;;1.90;99.90;;;;;;4962491;28;20054;-62
2022/12/14 09:58:28;;;;;;;29.77;19.52;;;1.70;99.90;;;;;;4962955;28;20129;-62
2022/12/14 10:01:22;;;;;;;32.45;18.98;;;2.00;99.90;;;;;;4963410;28;20051;-63
2022/12/14 10:04:07;;;;;;;28.95;18.45;;;1.00;99.90;;;;;;4963291;28;20038;-64
2022/12/14 10:06:35;;;;;;;29.15;17.85;;;0.40;99.90;;;;;;4970666;28;20093;-63
2022/12/14 10:09:43;;;;;;;28.35;18.20;;;1.60;99.90;;;;;;4964100;28;20402;-63
2022/12/14 10:12:34;;;;;;;32.42;19.48;;;0.30;99.90;;;;;;4961906;28;20480;-63
2022/12/14 10:15:31;;;;;;;32.92;19.75;;;0.10;99.90;;;;;;4962046;28;20047;-63
2022/12/14 10:18:00;;;;;;;34.92;20.02;;;0.30;99.90;;;;;;4962858;28;20050;-63
2022/12/14 10:20:37;;;;;;;32.45;20.05;;;1.30;99.90;;;;;;4962210;28;20047;-63
2022/12/14 10:23:03;;;;;;;33.50;19.88;;;0.20;99.90;;;;;;4963302;28;20047;-63
2022/12/14 10:25:33;;;;;;;32.85;21.05;;;1.10;99.90;;;;;;4963547;28;20043;-63
2022/12/14 10:28:16;;;;;;;27.02;16.83;;;1.80;99.90;;;;;;4962273;28;20131;-63
2022/12/14 10:30:43;;;;;;;27.00;16.80;;;0.90;99.90;;;;;;4962901;28;20130;-63
2022/12/14 10:33:30;;;;;;;29.92;18.65;;;2.30;99.90;;;;;;4962700;28;20046;-63
2022/12/14 10:36:15;;;;;;;25.42;17.23;;;1.40;99.90;;;;;;4963016;28;20287;-63
2022/12/14 10:38:54;;;;;;;26.55;17.75;;;1.60;99.90;;;;;;4962423;28;20039;-63
2022/12/14 10:41:40;;;;;;;25.35;17.75;;;2.50;99.90;;;;;;4962276;28;20445;-64
2022/12/14 10:44:21;;;;;;;23.13;15.95;;;2.40;99.90;;;;;;4962295;28;20051;-63
2022/12/14 10:46:54;;;;;;;26.10;16.58;;;2.10;99.90;;;;;;4963085;28;20379;-63
2022/12/14 10:49:20;;;;;;;25.52;17.23;;;2.50;99.90;;;;;;4961533;28;20054;-64
2022/12/14 10:51:53;;;;;;;26.73;17.60;;;1.90;99.90;;;;;;4963877;28;20043;-63
2022/12/14 10:54:37;;;;;;;26.73;17.52;;;2.20;99.90;;;;;;4963355;28;20046;-63
2022/12/14 10:57:04;;;;;;;24.45;16.70;;;2.30;99.90;;;;;;4963803;28;20050;-64
2022/12/14 10:59:34;;;;;;;23.38;16.25;;;2.70;99.90;;;;;;4966555;28;20101;-63
2022/12/14 11:02:12;;;;;;;24.38;17.25;;;2.80;99.90;;;;;;4966541;28;20047;-63
2022/12/14 11:04:58;;;;;;;24.95;16.48;;;2.80;99.90;;;;;;4952818;28;20152;-63
2022/12/14 11:07:44;;;;;;;25.25;16.65;;;2.70;99.90;;;;;;4969764;28;20043;-64
2022/12/14 11:10:28;;;;;;;24.23;17.15;;;2.60;99.90;;;;;;4966819;28;20154;-64
2022/12/14 11:13:06;;;;;;;24.38;15.80;;;2.80;99.90;;;;;;4966008;28;20516;-64
2022/12/14 11:15:36;;;;;;;21.67;15.07;;;2.90;99.90;;;;;;4949297;28;20521;-64
2022/12/14 11:18:27;;;;;;;22.33;16.15;;;2.80;99.90;;;;;;4966025;28;20050;-64
2022/12/14 11:20:57;;;;;;;25.15;17.52;;;3.00;99.90;;;;;;4965492;28;20074;-64
2022/12/14 11:23:34;;;;;;;26.52;18.40;;;3.10;99.90;;;;;;4966867;28;20131;-64
2022/12/14 11:26:03;;;;;;;24.50;17.15;;;3.90;99.90;;;;;;4948862;28;20054;-64
2022/12/14 11:28:32;;;;;;;24.33;16.95;;;3.30;99.90;;;;;;4966249;28;20425;-64
2022/12/14 11:30:59;;;;;;;23.95;16.05;;;2.60;99.90;;;;;;4966458;28;20042;-64
2022/12/14 11:33:48;;;;;;;25.85;16.85;;;2.40;99.90;;;;;;4965172;28;20069;-64
2022/12/14 11:36:31;;;;;;;24.20;16.98;;;2.30;99.90;;;;;;4965801;28;20394;-64
2022/12/14 11:39:04;;;;;;;23.90;16.63;;;2.20;99.90;;;;;;4966239;28;20148;-63
2022/12/14 11:41:40;;;;;;;23.63;16.17;;;2.00;99.90;;;;;;4966271;28;20050;-63
2022/12/14 11:44:25;;;;;;;23.60;15.68;;;2.50;99.90;;;;;;4965262;28;20050;-63
2022/12/14 11:47:01;;;;;;;22.13;14.45;;;2.10;99.90;;;;;;4964938;28;20047;-63
2022/12/14 11:49:28;;;;;;;22.40;14.38;;;2.20;99.90;;;;;;4964172;28;20054;-65
2022/12/14 11:52:04;;;;;;;26.55;18.42;;;2.40;99.90;;;;;;4965531;28;20445;-65
2022/12/14 11:54:31;;;;;;;24.65;18.08;;;2.60;99.90;;;;;;4965762;28;20130;-65
2022/12/14 11:57:15;;;;;;;23.10;16.83;;;3.10;99.90;;;;;;4962946;28;20038;-63
2022/12/14 11:59:49;;;;;;;23.42;16.20;;;2.80;99.90;;;;;;4964117;28;20373;-64
2022/12/14 12:02:21;;;;;;;23.20;16.13;;;2.30;99.90;;;;;;4963327;28;20038;-64
2022/12/14 12:04:57;;;;;;;23.42;16.42;;;1.60;99.90;;;;;;4969888;28;20046;-64
2022/12/14 12:07:49;;;;;;;21.40;15.27;;;1.80;99.90;;;;;;4970330;28;20348;-64
2022/12/14 12:10:20;;;;;;;25.38;17.20;;;1.60;99.90;;;;;;4968876;28;20109;-64
2022/12/14 12:12:59;;;;;;;23.35;16.05;;;2.40;99.90;;;;;;4965540;28;20648;-64
2022/12/14 12:15:48;;;;;;;24.08;17.00;;;1.50;99.90;;;;;;4964970;28;20093;-64
2022/12/14 12:18:38;;;;;;;24.75;16.40;;;1.10;99.90;;;;;;4970003;28;20169;-64
2022/12/14 12:21:16;;;;;;;23.98;16.40;;;1.30;99.90;;;;;;4965242;28;20395;-64
2022/12/14 12:23:48;;;;;;;22.90;15.90;;;1.30;99.90;;;;;;4964986;28;20406;-64
2022/12/14 12:26:27;;;;;;;23.00;16.48;;;1.20;99.90;;;;;;4963750;28;20109;-64
2022/12/14 12:29:17;;;;;;;26.85;17.77;;;1.30;99.90;;;;;;4965510;28;20086;-64
2022/12/14 12:31:52;;;;;;;23.40;16.23;;;1.20;99.90;;;;;;4964895;28;20142;-64
2022/12/14 12:34:25;;;;;;;23.02;16.38;;;1.20;99.90;;;;;;4964593;28;20045;-64
2022/12/14 12:36:52;;;;;;;25.83;16.92;;;2.00;99.90;;;;;;4964265;28;20053;-64
2022/12/14 12:39:23;;;;;;;23.65;17.00;;;1.00;99.90;;;;;;4965367;28;20122;-64
2022/12/14 12:42:10;;;;;;;26.10;17.90;;;1.60;99.90;;;;;;4965074;28;20164;-64
2022/12/14 12:44:59;;;;;;;25.77;17.08;;;1.10;99.90;;;;;;4964613;28;20043;-64
2022/12/14 12:47:39;;;;;;;25.13;16.85;;;0.90;99.90;;;;;;4961799;28;20070;-65
2022/12/14 12:50:28;;;;;;;25.50;16.67;;;1.50;99.90;;;;;;4964386;28;20051;-66
2022/12/14 12:53:04;;;;;;;27.05;18.05;;;0.50;99.90;;;;;;4963895;28;20122;-64
2022/12/14 12:55:43;;;;;;;24.95;17.27;;;1.30;99.90;;;;;;4964068;28;20061;-65
2022/12/14 12:58:21;;;;;;;26.90;18.55;;;0.70;99.90;;;;;;4962965;28;20478;-64
2022/12/14 13:00:50;;;;;;;28.50;17.63;;;0.50;99.90;;;;;;4964075;28;20241;-64
2022/12/14 13:03:21;;;;;;;26.40;18.58;;;0.40;99.90;;;;;;4963421;28;20426;-64
2022/12/14 13:05:47;;;;;;;26.25;17.88;;;0.20;99.90;;;;;;4970505;28;20436;-64
2022/12/14 13:08:13;;;;;;;26.75;18.23;;;0.20;99.90;;;;;;4983524;28;20050;-64